Time;durP1;ratioP1;P1;durP2;ratioP2;P2;SDS_P1;SDS_P2;PMS_P1;PMS_P2;Temp;Humidity;BMP_temperature;BMP_pressure;BME280_temperature;BME280_humidity;BME280_pressure;Samples;Min_cycle;Max_cycle;Signal;HPM_P1;HPM_P2
2023/06/05 00:02:00;;;;;;;3.35;2.17;;;;;;;10.44;100.00;101963.22;6171789;23;20066;-76
2023/06/05 00:04:27;;;;;;;8.82;3.00;;;;;;;10.41;100.00;101964.34;6171530;23;20015;-76
2023/06/05 00:06:53;;;;;;;10.80;2.83;;;;;;;10.38;100.00;101961.97;6221851;23;20011;-75
2023/06/05 00:09:19;;;;;;;3.70;2.88;;;;;;;10.42;100.00;101965.19;6221691;23;20326;-76
2023/06/05 00:11:45;;;;;;;5.82;2.88;;;;;;;10.41;100.00;101955.44;6248265;23;20001;-76
2023/06/05 00:14:11;;;;;;;4.93;2.90;;;;;;;10.50;100.00;101962.63;6171659;23;20004;-76
2023/06/05 00:16:39;;;;;;;4.10;2.38;;;;;;;10.49;100.00;101961.78;6221615;23;20038;-76
2023/06/05 00:19:05;;;;;;;3.53;2.22;;;;;;;10.56;100.00;101976.34;6171516;23;20007;-76
2023/06/05 00:21:33;;;;;;;4.32;2.03;;;;;;;10.55;100.00;101971.94;6196553;23;20016;-77
2023/06/05 00:23:58;;;;;;;4.60;2.20;;;;;;;10.31;100.00;101932.09;6171394;23;20471;-76
2023/06/05 00:26:24;;;;;;;5.57;2.42;;;;;;;10.44;100.00;101964.06;6171485;23;20001;-76
2023/06/05 00:28:52;;;;;;;4.03;1.98;;;;;;;10.32;100.00;101954.47;6196177;23;20000;-76
2023/06/05 00:31:18;;;;;;;4.50;2.17;;;;;;;10.30;100.00;101967.22;6196520;23;20035;-75
2023/06/05 00:33:44;;;;;;;4.38;2.25;;;;;;;10.15;100.00;101941.72;6221616;23;20007;-76
2023/06/05 00:36:11;;;;;;;5.45;2.50;;;;;;;10.21;100.00;101958.13;6171348;23;20036;-76
2023/06/05 00:38:37;;;;;;;5.45;2.38;;;;;;;10.18;100.00;101968.31;6221233;23;20004;-76
2023/06/05 00:41:02;;;;;;;3.17;1.98;;;;;;;10.07;100.00;101977.38;6221088;23;20008;-77
2023/06/05 00:43:28;;;;;;;4.78;2.42;;;;;;;10.01;100.00;101970.75;6196073;23;20012;-76
2023/06/05 00:45:59;;;;;;;4.85;2.50;;;;;;;9.97;100.00;101966.63;6171255;23;20008;-76
2023/06/05 00:48:25;;;;;;;5.97;2.40;;;;;;;9.93;100.00;101981.34;6220968;23;20007;-77
2023/06/05 00:50:51;;;;;;;3.38;2.25;;;;;;;9.88;100.00;101978.25;6195914;23;20011;-76
2023/06/05 00:53:17;;;;;;;7.40;2.30;;;;;;;9.90;100.00;101979.81;6171186;23;20024;-77
2023/06/05 00:55:42;;;;;;;3.83;2.30;;;;;;;9.90;100.00;101977.13;6171215;23;20008;-76
2023/06/05 00:58:08;;;;;;;6.13;2.15;;;;;;;9.85;100.00;101981.22;6196258;23;20317;-76
2023/06/05 01:00:34;;;;;;;4.57;2.83;;;;;;;9.69;100.00;101981.78;6180222;23;20102;-77
2023/06/05 01:03:01;;;;;;;6.22;2.50;;;;;;;9.57;100.00;101983.72;6195928;23;20008;-76
2023/06/05 01:05:27;;;;;;;6.00;2.72;;;;;;;9.45;100.00;101979.47;6221137;23;20012;-76
2023/06/05 01:07:53;;;;;;;15.70;5.93;;;;;;;9.35;100.00;101983.97;6195921;23;20083;-77
2023/06/05 01:10:19;;;;;;;8.25;2.90;;;;;;;9.27;100.00;101975.78;6245709;23;20071;-77
2023/06/05 01:12:53;;;;;;;4.25;2.50;;;;;;;9.27;100.00;101981.13;6195274;23;20500;-76
2023/06/05 01:15:28;;;;;;;3.63;1.95;;;;;;;9.24;100.00;101980.41;6247671;23;20421;-77
2023/06/05 01:17:58;;;;;;;4.68;2.63;;;;;;;9.19;100.00;101974.63;6223020;23;20000;-76
2023/06/05 01:20:37;;;;;;;5.93;2.47;;;;;;;9.01;100.00;101958.31;6195845;23;20012;-76
2023/06/05 01:23:04;;;;;;;2.80;1.95;;;;;;;9.03;100.00;101976.97;6195845;23;20492;-77
2023/06/05 01:25:30;;;;;;;3.33;2.25;;;;;;;8.89;100.00;101977.31;6246174;23;20008;-76
2023/06/05 01:28:02;;;;;;;5.97;2.20;;;;;;;8.74;100.00;101972.31;6245228;23;20396;-77
2023/06/05 01:30:31;;;;;;;9.55;3.60;;;;;;;8.63;100.00;101968.91;6220624;23;20008;-77
2023/06/05 01:33:03;;;;;;;7.13;3.42;;;;;;;8.50;100.00;101951.19;6220819;23;20336;-76
2023/06/05 01:35:33;;;;;;;5.07;2.53;;;;;;;8.59;100.00;101966.47;6220786;23;20010;-77
2023/06/05 01:38:05;;;;;;;3.72;2.38;;;;;;;8.57;100.00;101964.88;6245947;23;20008;-77
2023/06/05 01:40:32;;;;;;;6.07;2.35;;;;;;;8.54;100.00;101957.13;6246188;23;20008;-77
2023/06/05 01:43:00;;;;;;;6.72;1.95;;;;;;;8.48;100.00;101955.81;6245611;23;20313;-77
2023/06/05 01:45:26;;;;;;;3.92;2.25;;;;;;;8.44;100.00;101962.44;6245948;23;20447;-77
2023/06/05 01:47:53;;;;;;;6.47;2.10;;;;;;;8.35;100.00;101949.78;6220785;23;20000;-76
2023/06/05 01:50:19;;;;;;;5.93;2.58;;;;;;;8.47;100.00;101958.66;6220739;23;20004;-76
2023/06/05 01:52:46;;;;;;;4.25;2.03;;;;;;;8.40;100.00;101958.31;6220415;23;20038;-76
2023/06/05 01:55:20;;;;;;;5.65;2.10;;;;;;;8.26;100.00;101948.75;6245905;23;20417;-76
2023/06/05 01:57:46;;;;;;;4.78;2.78;;;;;;;8.06;100.00;101936.22;6245905;23;20428;-76
2023/06/05 02:00:15;;;;;;;3.80;2.05;;;;;;;8.10;100.00;101951.06;6195269;23;20008;-76
2023/06/05 02:02:48;;;;;;;4.95;2.45;;;;;;;7.97;100.00;101929.81;6220568;23;20045;-76
2023/06/05 02:05:15;;;;;;;4.35;2.35;;;;;;;8.06;100.00;101949.59;6220981;23;20003;-76
2023/06/05 02:07:48;;;;;;;4.95;2.42;;;;;;;8.03;100.00;101942.69;6220606;23;20061;-76
2023/06/05 02:10:15;;;;;;;3.78;2.22;;;;;;;7.81;100.00;101919.56;6221276;23;20028;-76
2023/06/05 02:12:42;;;;;;;4.85;2.70;;;;;;;7.91;100.00;101944.56;6195307;23;20077;-76
2023/06/05 02:15:12;;;;;;;5.25;2.35;;;;;;;7.83;100.00;101944.38;6220658;23;20379;-77
2023/06/05 02:17:39;;;;;;;5.65;2.50;;;;;;;7.76;100.00;101939.66;6221457;23;20004;-77
2023/06/05 02:20:05;;;;;;;6.32;2.33;;;;;;;7.75;100.00;101936.09;6195144;23;20004;-76
2023/06/05 02:22:31;;;;;;;3.05;2.03;;;;;;;7.67;100.00;101938.59;6219622;23;20012;-76
2023/06/05 02:24:56;;;;;;;5.80;2.53;;;;;;;7.75;100.00;101940.63;6194723;23;20336;-77
2023/06/05 02:27:24;;;;;;;3.85;2.45;;;;;;;7.71;100.00;101951.59;6245375;23;20364;-76
2023/06/05 02:29:50;;;;;;;4.95;2.40;;;;;;;7.62;100.00;101924.72;6220540;23;20345;-77
2023/06/05 02:32:16;;;;;;;3.03;1.83;;;;;;;7.70;100.00;101943.72;6245433;23;20011;-76
2023/06/05 02:34:44;;;;;;;8.82;3.00;;;;;;;7.72;100.00;101936.38;6195000;23;20004;-77
2023/06/05 02:37:11;;;;;;;3.45;2.22;;;;;;;7.72;100.00;101934.53;6195480;23;20015;-77
2023/06/05 02:39:37;;;;;;;5.03;2.25;;;;;;;7.72;100.00;101939.03;6220693;23;20001;-77
2023/06/05 02:42:03;;;;;;;5.38;2.67;;;;;;;7.75;100.00;101937.94;6245428;23;20058;-76
2023/06/05 02:44:29;;;;;;;5.28;3.05;;;;;;;7.76;100.00;101939.66;6194969;23;20004;-76
2023/06/05 02:46:54;;;;;;;4.03;2.33;;;;;;;7.72;100.00;101939.03;6195215;23;20008;-76
2023/06/05 02:49:20;;;;;;;3.20;1.83;;;;;;;7.85;100.00;101933.53;6194986;23;20425;-76
2023/06/05 02:51:46;;;;;;;6.07;2.70;;;;;;;8.11;100.00;101932.16;6194841;23;20014;-76
2023/06/05 02:54:11;;;;;;;6.03;2.63;;;;;;;8.24;100.00;101937.31;6194891;23;20012;-76
2023/06/05 02:56:39;;;;;;;6.13;2.75;;;;;;;8.17;100.00;101930.78;6194938;23;20004;-77
2023/06/05 02:59:05;;;;;;;5.10;2.55;;;;;;;8.09;100.00;101928.75;6195205;23;20103;-76
2023/06/05 03:01:34;;;;;;;5.80;2.88;;;;;;;8.04;100.00;101938.16;6194857;23;20087;-77
2023/06/05 03:04:03;;;;;;;4.68;2.00;;;;;;;7.97;100.00;101937.84;6220568;23;20016;-77
2023/06/05 03:06:33;;;;;;;5.18;2.55;;;;;;;7.87;100.00;101931.56;6194926;23;20444;-77
2023/06/05 03:08:59;;;;;;;6.00;2.60;;;;;;;7.76;100.00;101919.09;6220634;23;20054;-77
2023/06/05 03:11:26;;;;;;;4.35;2.63;;;;;;;7.81;100.00;101929.41;6244893;23;20008;-76
2023/06/05 03:13:52;;;;;;;4.53;2.80;;;;;;;7.66;100.00;101928.88;6194882;23;20041;-76
2023/06/05 03:16:18;;;;;;;3.92;2.35;;;;;;;7.73;100.00;101924.69;6219727;23;20008;-76
2023/06/05 03:18:45;;;;;;;6.47;2.70;;;;;;;7.72;100.00;101925.66;6219505;23;20027;-77
2023/06/05 03:21:11;;;;;;;5.18;3.28;;;;;;;7.72;100.00;101925.66;6220040;23;20455;-76
2023/06/05 03:23:37;;;;;;;5.28;2.83;;;;;;;7.69;100.00;101921.41;6219851;23;20050;-77
2023/06/05 03:26:03;;;;;;;6.20;2.70;;;;;;;7.77;100.00;101925.28;6194741;23;20000;-76
2023/06/05 03:28:30;;;;;;;5.18;2.88;;;;;;;7.72;100.00;101917.63;6219581;23;20008;-77
2023/06/05 03:30:56;;;;;;;3.97;2.35;;;;;;;7.51;100.00;101903.38;6245083;23;20000;-76
2023/06/05 03:33:21;;;;;;;1.75;1.27;;;;;;;7.52;100.00;101919.31;6194621;23;20420;-76
2023/06/05 03:35:48;;;;;;;5.00;2.78;;;;;;;7.57;100.00;101918.91;6219500;23;20360;-79
2023/06/05 03:38:14;;;;;;;4.65;2.58;;;;;;;7.54;100.00;101920.03;6220029;23;20046;-77
2023/06/05 03:40:41;;;;;;;5.88;3.10;;;;;;;7.53;100.00;101920.16;6194606;23;20001;-76
2023/06/05 03:43:07;;;;;;;3.60;2.40;;;;;;;7.43;100.00;101918.22;6244494;23;20009;-76
2023/06/05 03:45:33;;;;;;;5.97;3.00;;;;;;;7.43;100.00;101920.91;6219442;23;20028;-76
2023/06/05 03:48:00;;;;;;;4.95;2.70;;;;;;;7.34;100.00;101916.31;6219752;23;20008;-76
2023/06/05 03:50:29;;;;;;;6.28;2.88;;;;;;;7.26;100.00;101908.09;6219587;23;20035;-77
2023/06/05 03:53:01;;;;;;;5.10;2.50;;;;;;;7.28;100.00;101914.16;6244898;23;20011;-77
2023/06/05 03:55:40;;;;;;;5.50;2.75;;;;;;;7.29;100.00;101915.00;6245101;23;20083;-78
2023/06/05 03:58:14;;;;;;;6.10;2.55;;;;;;;7.23;100.00;101909.19;6221582;23;20012;-77
2023/06/05 04:00:44;;;;;;;4.05;2.22;;;;;;;7.16;100.00;101909.81;6194139;23;20012;-76
2023/06/05 04:03:10;;;;;;;4.65;3.28;;;;;;;7.29;100.00;101915.00;6219395;23;20004;-77
2023/06/05 04:05:37;;;;;;;4.45;2.92;;;;;;;7.16;100.00;101918.69;6219467;23;20016;-77
2023/06/05 04:08:04;;;;;;;6.40;2.65;;;;;;;7.04;100.00;101914.34;6244571;23;20004;-77
2023/06/05 04:10:30;;;;;;;9.13;3.42;;;;;;;6.98;100.00;101904.97;6219501;23;20488;-77
2023/06/05 04:12:55;;;;;;;4.55;2.95;;;;;;;6.99;100.00;101912.03;6244254;23;20079;-77
2023/06/05 04:15:24;;;;;;;6.13;2.88;;;;;;;7.06;100.00;101917.72;6194223;23;20061;-76
2023/06/05 04:17:50;;;;;;;4.28;3.08;;;;;;;7.11;100.00;101918.19;6194236;23;20004;-77
2023/06/05 04:20:15;;;;;;;4.22;2.05;;;;;;;6.93;100.00;101900.97;6219485;23;20036;-77
2023/06/05 04:22:42;;;;;;;5.85;3.10;;;;;;;7.13;100.00;101920.75;6219284;23;20397;-76
2023/06/05 04:25:10;;;;;;;4.63;2.75;;;;;;;7.15;100.00;101917.00;6219540;23;20004;-76
2023/06/05 04:27:38;;;;;;;4.30;2.58;;;;;;;7.18;100.00;101914.06;6244435;23;20011;-77
2023/06/05 04:30:07;;;;;;;5.47;2.83;;;;;;;7.24;100.00;101913.53;6244727;23;20003;-76
2023/06/05 04:32:36;;;;;;;5.60;2.70;;;;;;;7.37;100.00;101924.09;6219422;23;20000;-76
2023/06/05 04:35:03;;;;;;;5.30;3.08;;;;;;;7.43;100.00;101923.56;6244511;23;20008;-76
2023/06/05 04:37:29;;;;;;;5.70;2.90;;;;;;;7.47;100.00;101919.69;6244704;23;20004;-77
2023/06/05 04:39:54;;;;;;;6.43;3.22;;;;;;;7.48;100.00;101923.19;6219326;23;20463;-76
2023/06/05 04:42:21;;;;;;;5.50;2.70;;;;;;;7.47;100.00;101927.72;6244299;23;20001;-76
2023/06/05 04:45:01;;;;;;;6.40;2.70;;;;;;;7.55;100.00;101923.56;6244521;23;20087;-75
2023/06/05 04:47:27;;;;;;;5.63;3.38;;;;;;;7.54;100.00;101922.72;6246238;23;20019;-76
2023/06/05 04:49:54;;;;;;;5.07;2.67;;;;;;;7.67;100.00;101923.41;6196141;23;20019;-76
2023/06/05 04:52:21;;;;;;;6.60;3.22;;;;;;;7.76;100.00;101920.91;6221365;23;20004;-76
2023/06/05 04:54:47;;;;;;;7.55;2.90;;;;;;;7.90;100.00;101915.25;6195927;23;20357;-76
2023/06/05 04:57:13;;;;;;;4.38;2.67;;;;;;;8.18;100.00;101929.81;6196112;23;20012;-76
2023/06/05 04:59:38;;;;;;;6.13;3.42;;;;;;;8.32;100.00;101921.44;6195829;23;20011;-76
2023/06/05 05:02:04;;;;;;;5.75;3.45;;;;;;;8.46;100.00;101919.41;6171384;23;20012;-76
2023/06/05 05:04:30;;;;;;;7.63;3.22;;;;;;;8.82;100.00;101927.91;6171337;23;20498;-77
2023/06/05 05:07:00;;;;;;;3.50;2.53;;;;;;;9.38;100.00;101930.00;6171051;23;20459;-77
2023/06/05 05:09:32;;;;;;;4.95;2.80;;;;;;;10.21;100.00;101925.88;6196790;23;20012;-76
2023/06/05 05:11:59;;;;;;;5.32;3.40;;;;;;;10.94;100.00;101931.44;6195656;23;20506;-77
2023/06/05 05:14:28;;;;;;;3.20;1.90;;;;;;;11.52;100.00;101932.94;6195951;23;20325;-78
2023/06/05 05:16:55;;;;;;;6.20;3.33;;;;;;;12.08;100.00;101937.16;6221169;23;20000;-77
2023/06/05 05:19:22;;;;;;;3.58;2.63;;;;;;;12.49;100.00;101920.38;6221144;23;20007;-77
2023/06/05 05:21:48;;;;;;;6.28;3.25;;;;;;;12.89;99.81;101929.72;6220999;23;20008;-76
2023/06/05 05:24:14;;;;;;;6.80;3.33;;;;;;;13.22;96.72;101929.81;6170754;23;20344;-76
2023/06/05 05:26:39;;;;;;;3.60;2.45;;;;;;;13.50;93.17;101906.94;6220850;23;20004;-76
2023/06/05 05:29:08;;;;;;;5.30;2.80;;;;;;;14.00;89.06;101919.47;6170828;23;20008;-76
2023/06/05 05:31:34;;;;;;;7.32;3.15;;;;;;;14.33;87.03;101924.81;6220646;23;20425;-76
2023/06/05 05:33:59;;;;;;;6.35;2.90;;;;;;;14.47;84.32;101898.91;6220470;23;20007;-76
2023/06/05 05:36:26;;;;;;;6.85;2.85;;;;;;;14.62;82.15;101923.44;6195664;23;19996;-76
2023/06/05 05:38:52;;;;;;;5.18;3.00;;;;;;;14.79;80.69;101927.78;6170900;23;20425;-76
2023/06/05 05:41:18;;;;;;;5.22;3.08;;;;;;;14.78;79.64;101923.38;6195494;23;20000;-76
2023/06/05 05:43:44;;;;;;;4.70;3.05;;;;;;;15.24;77.08;101928.06;6170712;23;20069;-76
2023/06/05 05:46:10;;;;;;;5.05;3.25;;;;;;;15.79;75.67;101921.63;6195497;23;20062;-76
2023/06/05 05:48:36;;;;;;;6.35;3.10;;;;;;;16.36;72.62;101926.53;6170630;23;20004;-76
2023/06/05 05:51:02;;;;;;;5.30;3.13;;;;;;;16.82;69.11;101926.38;6220589;23;20007;-75
2023/06/05 05:53:30;;;;;;;4.75;2.70;;;;;;;17.38;66.68;101933.09;6172325;23;20004;-76
2023/06/05 05:55:56;;;;;;;5.28;2.75;;;;;;;17.79;63.93;101927.94;6204231;23;20433;-74
2023/06/05 05:58:21;;;;;;;2.97;1.95;;;;;;;18.06;59.79;101922.72;6171006;23;20012;-74
2023/06/05 06:00:47;;;;;;;5.93;3.25;;;;;;;18.04;58.16;101901.13;6182319;23;20034;-76
2023/06/05 06:03:14;;;;;;;3.78;2.78;;;;;;;18.27;59.20;101925.38;6247227;22;20000;-75
2023/06/05 06:05:40;;;;;;;4.95;3.00;;;;;;;18.52;57.95;101916.75;6220584;23;20032;-75
2023/06/05 06:08:06;;;;;;;3.95;2.50;;;;;;;18.85;55.10;101919.69;6220380;23;20019;-75
2023/06/05 06:10:33;;;;;;;5.30;3.33;;;;;;;18.86;55.74;101915.91;6220044;23;20008;-75
2023/06/05 06:12:58;;;;;;;4.50;2.95;;;;;;;18.93;55.33;101924.97;6245610;23;20007;-75
2023/06/05 06:15:24;;;;;;;3.60;2.95;;;;;;;18.96;55.16;101901.91;6220087;23;20004;-74
2023/06/05 06:17:50;;;;;;;5.60;2.90;;;;;;;19.20;54.72;101920.44;6245599;23;20004;-75
2023/06/05 06:20:16;;;;;;;5.53;3.42;;;;;;;19.44;54.39;101912.75;6195301;23;20074;-75
2023/06/05 06:22:44;;;;;;;4.32;2.63;;;;;;;19.63;53.66;101909.22;6195212;23;20396;-74
2023/06/05 06:25:11;;;;;;;7.18;3.17;;;;;;;19.79;53.55;101912.63;6220295;23;20012;-74
2023/06/05 06:27:38;;;;;;;2.97;2.10;;;;;;;20.19;51.27;101913.44;6245545;23;20004;-75
2023/06/05 06:30:04;;;;;;;3.90;2.63;;;;;;;20.13;53.14;101912.41;6245586;23;20005;-76
2023/06/05 06:32:31;;;;;;;4.65;2.60;;;;;;;20.37;52.53;101912.81;6220197;23;20000;-74
2023/06/05 06:34:59;;;;;;;3.95;3.15;;;;;;;20.66;49.86;101916.97;6194954;23;20073;-75
2023/06/05 06:37:24;;;;;;;7.00;2.90;;;;;;;20.74;50.14;101910.44;6220371;23;20004;-74
2023/06/05 06:39:53;;;;;;;5.28;3.13;;;;;;;20.89;49.64;101916.47;6194866;23;20005;-75
2023/06/05 06:42:19;;;;;;;5.68;3.28;;;;;;;20.96;50.81;101916.47;6195437;23;20099;-75
2023/06/05 06:44:45;;;;;;;3.55;2.63;;;;;;;21.17;48.43;101918.88;6194596;23;20039;-75
2023/06/05 06:47:11;;;;;;;3.92;3.03;;;;;;;21.16;49.08;101922.66;6219880;23;20322;-75
2023/06/05 06:49:40;;;;;;;4.35;2.78;;;;;;;21.18;48.37;101925.19;6245125;23;20209;-75
2023/06/05 06:52:08;;;;;;;5.03;2.90;;;;;;;21.37;48.92;101924.25;6244919;23;20105;-77
2023/06/05 06:54:34;;;;;;;3.90;2.63;;;;;;;21.71;48.55;101922.16;6245125;23;20428;-75
2023/06/05 06:57:01;;;;;;;4.05;2.42;;;;;;;21.94;47.19;101916.09;6219926;23;20004;-75
2023/06/05 06:59:27;;;;;;;4.75;2.85;;;;;;;21.87;46.47;101905.19;6194725;23;20012;-76
2023/06/05 07:02:17;;;;;;;4.40;2.40;;;;;;;22.25;46.36;101928.88;6194908;23;20314;-75
2023/06/05 07:04:43;;;;;;;4.78;2.92;;;;;;;22.46;46.27;101926.81;6169911;23;20012;-76
2023/06/05 07:07:11;;;;;;;4.68;3.13;;;;;;;22.87;46.69;101920.66;6246596;23;20428;-76
2023/06/05 07:09:37;;;;;;;3.80;2.78;;;;;;;23.24;44.27;101918.72;6194958;23;20020;-74
2023/06/05 07:12:06;;;;;;;5.75;2.67;;;;;;;23.45;44.70;101927.53;6169987;23;20008;-75
2023/06/05 07:14:35;;;;;;;4.63;3.00;;;;;;;23.83;43.51;101929.06;6170451;23;20012;-75
2023/06/05 07:17:02;;;;;;;4.00;2.42;;;;;;;23.89;41.85;101928.13;6195524;23;20012;-75
2023/06/05 07:19:31;;;;;;;3.30;2.72;;;;;;;23.88;43.02;101924.53;6219375;23;20034;-75
2023/06/05 07:21:58;;;;;;;4.70;2.83;;;;;;;23.96;43.09;101922.53;6219613;23;20034;-75
2023/06/05 07:24:24;;;;;;;4.47;2.42;;;;;;;24.07;42.68;101919.78;6194463;23;20475;-76
2023/06/05 07:27:00;;;;;;;5.45;3.70;;;;;;;24.15;42.46;101915.84;6194416;23;20008;-76
2023/06/05 07:29:26;;;;;;;3.92;2.53;;;;;;;24.46;43.08;101922.94;6219456;23;20421;-76
2023/06/05 07:31:56;;;;;;;3.15;2.22;;;;;;;24.54;41.04;101925.31;6169678;23;20008;-76
2023/06/05 07:34:23;;;;;;;4.38;2.30;;;;;;;24.48;41.83;101920.78;6219434;23;20004;-76
2023/06/05 07:36:51;;;;;;;4.07;2.42;;;;;;;24.55;42.10;101912.38;6219707;23;20000;-75
2023/06/05 07:39:18;;;;;;;6.03;2.75;;;;;;;25.07;40.71;101934.41;6170052;23;20004;-75
2023/06/05 07:41:44;;;;;;;3.85;2.55;;;;;;;25.13;40.80;101935.34;6194637;23;19996;-75
2023/06/05 07:44:11;;;;;;;4.80;3.08;;;;;;;25.26;40.92;101937.81;6168920;23;20054;-77
2023/06/05 07:46:39;;;;;;;6.05;3.10;;;;;;;25.91;39.53;101931.06;6194073;23;20117;-76
2023/06/05 07:49:05;;;;;;;5.60;2.72;;;;;;;25.91;38.01;101939.31;6192615;23;20636;-79
2023/06/05 07:51:35;;;;;;;5.38;3.00;;;;;;;25.92;37.96;101940.16;6166766;23;20032;-78
2023/06/05 07:54:09;;;;;;;4.75;2.90;;;;;;;26.22;38.48;101940.63;6216779;23;20042;-78
2023/06/05 07:56:36;;;;;;;3.00;2.50;;;;;;;26.69;35.64;101943.00;6243856;23;20008;-79
2023/06/05 07:59:03;;;;;;;4.88;2.63;;;;;;;26.79;37.18;101936.78;6216855;23;20008;-78
2023/06/05 08:01:29;;;;;;;4.00;2.63;;;;;;;26.87;36.45;101941.84;6237558;23;20089;-78
2023/06/05 08:03:55;;;;;;;4.20;2.83;;;;;;;26.97;36.90;101925.41;6243211;23;20436;-79
2023/06/05 08:06:21;;;;;;;4.10;2.60;;;;;;;27.32;36.33;101948.22;6219587;23;20007;-79
2023/06/05 08:08:46;;;;;;;3.40;2.60;;;;;;;27.39;36.25;101952.44;6244369;23;20004;-79
2023/06/05 08:11:12;;;;;;;4.30;2.90;;;;;;;27.06;36.36;101945.13;6219475;23;20004;-79
2023/06/05 08:13:38;;;;;;;3.80;2.70;;;;;;;26.93;36.72;101951.84;6246301;22;20000;-79
2023/06/05 08:16:05;;;;;;;3.88;2.60;;;;;;;27.03;36.60;101923.56;6194359;23;20012;-79
2023/06/05 08:18:31;;;;;;;4.28;3.00;;;;;;;27.26;36.53;101950.09;6244767;23;20490;-79
2023/06/05 08:20:56;;;;;;;6.82;3.25;;;;;;;27.36;37.03;101955.72;6220150;23;20008;-79
2023/06/05 08:23:22;;;;;;;3.47;2.60;;;;;;;28.01;35.76;101961.34;6246682;23;20012;-79
2023/06/05 08:25:48;;;;;;;3.70;2.55;;;;;;;28.39;35.36;101946.38;6246580;23;20424;-79
2023/06/05 08:28:15;;;;;;;3.00;2.72;;;;;;;28.47;33.96;101945.94;6247748;22;20000;-79
2023/06/05 08:30:41;;;;;;;5.38;3.40;;;;;;;28.22;34.17;101934.66;6221486;23;20459;-79
2023/06/05 08:33:07;;;;;;;6.35;2.90;;;;;;;28.19;33.65;101940.75;6196235;23;20004;-79
2023/06/05 08:35:32;;;;;;;3.45;2.83;;;;;;;28.02;33.97;101940.88;6221223;23;20012;-80
2023/06/05 08:37:58;;;;;;;3.90;2.90;;;;;;;27.90;35.17;101938.31;6247753;22;20007;-79
2023/06/05 08:40:28;;;;;;;3.80;2.70;;;;;;;27.94;34.86;101928.38;6196085;23;20087;-80
2023/06/05 08:42:54;;;;;;;4.53;3.60;;;;;;;28.07;34.11;101929.84;6246637;23;20004;-79
2023/06/05 08:45:20;;;;;;;4.38;3.00;;;;;;;27.96;34.06;101948.28;6196307;23;20059;-79
2023/06/05 08:47:49;;;;;;;4.85;2.90;;;;;;;28.03;33.94;101948.91;6246561;23;20465;-80
2023/06/05 08:50:15;;;;;;;4.43;3.33;;;;;;;28.22;33.63;101935.50;6220962;23;20083;-79
2023/06/05 08:52:42;;;;;;;5.90;2.88;;;;;;;28.32;33.04;101934.75;6196038;23;20429;-80
2023/06/05 08:55:08;;;;;;;4.22;2.70;;;;;;;28.43;34.21;101942.03;6220349;23;20093;-80
2023/06/05 08:57:37;;;;;;;4.45;3.45;;;;;;;28.65;33.86;101939.09;6221137;23;19996;-82
2023/06/05 09:00:09;;;;;;;4.93;2.85;;;;;;;28.94;33.65;101938.69;6220623;23;20008;-80
2023/06/05 09:02:37;;;;;;;3.72;2.80;;;;;;;28.95;33.30;101940.38;6255526;23;20015;-79
2023/06/05 09:05:03;;;;;;;4.43;3.15;;;;;;;29.12;31.10;101942.94;6207951;23;20000;-80
2023/06/05 09:07:29;;;;;;;6.72;3.67;;;;;;;29.43;32.66;101938.31;6224264;23;20008;-80
2023/06/05 09:09:54;;;;;;;5.40;3.78;;;;;;;30.22;31.77;101938.88;6195644;23;20498;-81
2023/06/05 09:12:20;;;;;;;3.80;2.80;;;;;;;30.51;29.07;101924.41;6194971;23;20035;-81
2023/06/05 09:14:46;;;;;;;5.20;3.08;;;;;;;30.43;30.75;101942.47;6195812;23;20087;-81
2023/06/05 09:17:13;;;;;;;6.30;2.85;;;;;;;30.60;30.98;101943.00;6220733;23;20008;-81
2023/06/05 09:19:40;;;;;;;4.72;2.78;;;;;;;30.83;29.12;101941.56;6245842;23;20095;-81
2023/06/05 09:22:10;;;;;;;6.22;2.92;;;;;;;30.70;29.25;101944.06;6246301;23;20004;-80
2023/06/05 09:24:37;;;;;;;4.82;3.38;;;;;;;31.06;31.05;101937.28;6221075;23;20004;-80
2023/06/05 09:27:16;;;;;;;4.55;3.20;;;;;;;31.49;29.56;101945.97;6245553;23;20004;-81
2023/06/05 09:29:44;;;;;;;6.57;3.33;;;;;;;31.81;28.76;101930.69;6246362;23;20001;-81
2023/06/05 09:32:17;;;;;;;4.72;3.38;;;;;;;31.23;28.59;101931.38;6195076;23;20437;-80
2023/06/05 09:34:45;;;;;;;4.63;3.30;;;;;;;31.05;29.81;101935.63;6221165;23;20011;-80
2023/06/05 09:37:12;;;;;;;3.85;3.00;;;;;;;31.22;28.78;101945.53;6245363;23;20091;-80
2023/06/05 09:39:39;;;;;;;5.32;3.65;;;;;;;31.01;29.50;101945.63;6220419;23;20111;-80
2023/06/05 09:42:06;;;;;;;6.47;3.72;;;;;;;30.97;30.27;101940.94;6244196;23;20004;-79
2023/06/05 09:44:34;;;;;;;5.57;3.65;;;;;;;30.99;30.44;101941.47;6192845;23;20010;-80
2023/06/05 09:47:01;;;;;;;5.30;3.30;;;;;;;30.92;29.97;101949.31;6217560;23;20008;-80
2023/06/05 09:49:26;;;;;;;4.90;3.28;;;;;;;31.04;30.29;101952.56;6194893;23;20425;-80
2023/06/05 09:51:52;;;;;;;4.88;3.38;;;;;;;31.26;30.76;101944.69;6220306;23;20091;-80
2023/06/05 09:54:19;;;;;;;5.18;3.70;;;;;;;31.44;29.75;101937.66;6195195;23;20336;-80
2023/06/05 09:56:48;;;;;;;6.70;3.33;;;;;;;31.14;29.56;101937.81;6243788;23;20008;-81
2023/06/05 09:59:20;;;;;;;5.57;4.28;;;;;;;31.31;30.10;101939.09;6220564;23;20081;-81
2023/06/05 10:01:46;;;;;;;7.57;4.10;;;;;;;31.90;28.43;101933.69;6245318;23;20016;-80
2023/06/05 10:04:12;;;;;;;5.43;4.13;;;;;;;32.05;28.81;101930.78;6245680;23;20505;-81
2023/06/05 10:06:39;;;;;;;6.15;3.60;;;;;;;31.80;28.50;101929.03;6245618;23;20008;-82
2023/06/05 10:09:06;;;;;;;5.35;4.03;;;;;;;31.67;29.03;101935.25;6194570;23;20004;-80
2023/06/05 10:11:32;;;;;;;4.28;3.88;;;;;;;31.89;29.09;101932.03;6218243;23;20006;-80
2023/06/05 10:13:59;;;;;;;3.83;3.20;;;;;;;32.13;27.41;101921.81;6219549;23;20425;-82
2023/06/05 10:16:27;;;;;;;4.00;3.42;;;;;;;31.80;28.07;101939.31;6194674;23;20016;-81
2023/06/05 10:18:58;;;;;;;4.20;3.35;;;;;;;31.69;27.58;101927.44;6219597;23;20000;-81
2023/06/05 10:21:41;;;;;;;5.03;4.30;;;;;;;31.18;30.54;101927.78;6242370;23;20004;-82
2023/06/05 10:24:11;;;;;;;5.70;4.18;;;;;;;31.80;28.87;101929.03;6194511;23;20077;-80
2023/06/05 10:26:43;;;;;;;6.53;4.20;;;;;;;32.49;27.93;101935.34;6245040;23;20007;-81
2023/06/05 10:29:40;;;;;;;5.25;3.95;;;;;;;33.17;27.44;101923.09;6219967;23;20095;-80
2023/06/05 10:32:21;;;;;;;4.43;3.78;;;;;;;33.79;25.79;101925.78;6220169;23;20512;-82
2023/06/05 10:35:15;;;;;;;6.03;4.07;;;;;;;33.62;26.02;101923.56;6195755;23;20420;-81
2023/06/05 10:37:59;;;;;;;3.28;2.65;;;;;;;33.82;23.45;101902.88;6219778;23;20449;-80
2023/06/05 10:40:25;;;;;;;5.45;3.47;;;;;;;29.29;30.33;101915.00;6244840;23;20031;-80
2023/06/05 10:42:51;;;;;;;6.18;4.47;;;;;;;27.80;33.85;101914.16;6244702;23;20008;-81
2023/06/05 10:45:32;;;;;;;6.47;3.47;;;;;;;27.57;33.57;101890.47;6219842;23;20004;-80
2023/06/05 10:47:58;;;;;;;4.65;4.00;;;;;;;27.16;35.12;101903.00;6244812;23;20448;-79
2023/06/05 10:50:27;;;;;;;9.98;4.40;;;;;;;27.28;35.62;101900.09;6219521;23;20011;-78
2023/06/05 10:52:54;;;;;;;4.60;3.97;;;;;;;25.84;38.04;101903.66;6245042;23;20004;-78
2023/06/05 10:55:21;;;;;;;5.72;4.13;;;;;;;27.30;35.77;101906.22;6245118;23;20011;-78
2023/06/05 10:58:10;;;;;;;5.63;4.53;;;;;;;27.04;35.27;101903.13;6244593;23;20332;-79
2023/06/05 11:00:38;;;;;;;6.78;3.65;;;;;;;27.38;34.53;101875.34;6219679;23;20008;-79
2023/06/05 11:03:05;;;;;;;3.85;3.45;;;;;;;28.76;33.04;101901.22;6194781;23;20024;-79
2023/06/05 11:05:31;;;;;;;6.00;3.97;;;;;;;30.80;31.23;101905.16;6245045;23;20031;-79
2023/06/05 11:08:14;;;;;;;6.32;4.30;;;;;;;32.44;28.99;101904.75;6219717;23;20024;-80
2023/06/05 11:11:05;;;;;;;6.10;3.80;;;;;;;33.42;26.86;101902.38;6244576;23;20000;-79
2023/06/05 11:13:56;;;;;;;5.18;4.10;;;;;;;33.26;25.34;101909.31;6219663;23;20004;-79
2023/06/05 11:16:31;;;;;;;9.05;3.88;;;;;;;33.04;26.71;101905.16;6193848;23;20012;-79
2023/06/05 11:19:36;;;;;;;6.80;4.55;;;;;;;33.12;26.42;101903.66;6219561;23;20450;-79
2023/06/05 11:22:13;;;;;;;6.72;3.80;;;;;;;32.88;25.34;101903.69;6145770;23;20035;-79
2023/06/05 11:24:39;;;;;;;3.70;3.33;;;;;;;32.88;25.89;101912.06;6244654;23;20011;-79
2023/06/05 11:27:06;;;;;;;5.18;4.28;;;;;;;33.00;26.64;101906.88;6219666;23;20004;-79
2023/06/05 11:29:32;;;;;;;4.72;3.78;;;;;;;33.23;26.33;101909.91;6245041;23;20083;-79